sensor_id;sensor_type;location;lat;lon;timestamp;temperature;humidity
12893;DHT22;6514;48.606;9.222;2024-01-15T00:00:23;-1.80;99.90
12893;DHT22;6514;48.606;9.222;2024-01-15T00:02:50;-1.80;99.90
12893;DHT22;6514;48.606;9.222;2024-01-15T00:05:17;-1.80;99.90
12893;DHT22;6514;48.606;9.222;2024-01-15T00:07:45;-1.70;99.90
12893;DHT22;6514;48.606;9.222;2024-01-15T00:10:12;-1.70;99.90
12893;DHT22;6514;48.606;9.222;2024-01-15T00:12:38;-1.60;99.90
12893;DHT22;6514;48.606;9.222;2024-01-15T00:15:06;-1.60;99.90
12893;DHT22;6514;48.606;9.222;2024-01-15T00:17:33;-1.60;99.90
12893;DHT22;6514;48.606;9.222;2024-01-15T00:20:00;-1.50;99.90
12893;DHT22;6514;48.606;9.222;2024-01-15T00:22:26;-1.50;99.90
12893;DHT22;6514;48.606;9.222;2024-01-15T00:24:55;-1.40;99.90
12893;DHT22;6514;48.606;9.222;2024-01-15T00:27:29;-1.50;99.90
12893;DHT22;6514;48.606;9.222;2024-01-15T00:29:56;-1.40;99.90
12893;DHT22;6514;48.606;9.222;2024-01-15T00:32:23;-1.40;99.90
12893;DHT22;6514;48.606;9.222;2024-01-15T00:34:50;-1.40;99.90
12893;DHT22;6514;48.606;9.222;2024-01-15T00:37:17;-1.40;99.90
12893;DHT22;6514;48.606;9.222;2024-01-15T00:39:44;-1.40;99.90
12893;DHT22;6514;48.606;9.222;2024-01-15T00:42:12;-1.40;99.90
12893;DHT22;6514;48.606;9.222;2024-01-15T00:44:39;-1.40;99.90
12893;DHT22;6514;48.606;9.222;2024-01-15T00:47:06;-1.40;99.90
12893;DHT22;6514;48.606;9.222;2024-01-15T00:49:32;-1.40;99.90
12893;DHT22;6514;48.606;9.222;2024-01-15T00:51:59;-1.30;99.90
12893;DHT22;6514;48.606;9.222;2024-01-15T00:54:26;-1.40;99.90
12893;DHT22;6514;48.606;9.222;2024-01-15T00:56:53;-1.40;99.90
12893;DHT22;6514;48.606;9.222;2024-01-15T00:59:22;-1.40;99.90
12893;DHT22;6514;48.606;9.222;2024-01-15T01:01:49;-1.40;99.90
12893;DHT22;6514;48.606;9.222;2024-01-15T01:04:15;-1.50;99.90
12893;DHT22;6514;48.606;9.222;2024-01-15T01:06:42;-1.50;99.90
12893;DHT22;6514;48.606;9.222;2024-01-15T01:09:09;-1.50;99.90
12893;DHT22;6514;48.606;9.222;2024-01-15T01:11:36;-1.50;99.90
12893;DHT22;6514;48.606;9.222;2024-01-15T01:14:03;-1.50;99.90
12893;DHT22;6514;48.606;9.222;2024-01-15T01:16:31;-1.50;99.90
12893;DHT22;6514;48.606;9.222;2024-01-15T01:19:04;-1.50;99.90
12893;DHT22;6514;48.606;9.222;2024-01-15T01:21:31;-1.50;99.90
12893;DHT22;6514;48.606;9.222;2024-01-15T01:23:57;-1.50;99.90
12893;DHT22;6514;48.606;9.222;2024-01-15T01:26:24;-1.50;99.90
12893;DHT22;6514;48.606;9.222;2024-01-15T01:28:51;-1.40;99.90
12893;DHT22;6514;48.606;9.222;2024-01-15T01:31:18;-1.40;99.90
12893;DHT22;6514;48.606;9.222;2024-01-15T01:33:46;-1.40;99.90
12893;DHT22;6514;48.606;9.222;2024-01-15T01:36:13;-1.40;99.90
12893;DHT22;6514;48.606;9.222;2024-01-15T01:38:40;-1.40;99.90
12893;DHT22;6514;48.606;9.222;2024-01-15T01:41:06;-1.40;99.90
12893;DHT22;6514;48.606;9.222;2024-01-15T01:43:33;-1.50;99.90
12893;DHT22;6514;48.606;9.222;2024-01-15T01:46:06;-1.50;99.90
12893;DHT22;6514;48.606;9.222;2024-01-15T01:48:33;-1.60;99.90
12893;DHT22;6514;48.606;9.222;2024-01-15T01:51:02;-1.60;99.90
12893;DHT22;6514;48.606;9.222;2024-01-15T01:53:31;-1.60;99.90
12893;DHT22;6514;48.606;9.222;2024-01-15T02:21:54;-1.90;99.90
12893;DHT22;6514;48.606;9.222;2024-01-15T02:24:22;-1.90;99.90
12893;DHT22;6514;48.606;9.222;2024-01-15T02:26:49;-1.90;99.90
12893;DHT22;6514;48.606;9.222;2024-01-15T02:29:16;-1.90;99.90
12893;DHT22;6514;48.606;9.222;2024-01-15T02:31:43;-1.90;99.90
12893;DHT22;6514;48.606;9.222;2024-01-15T02:34:10;-1.70;99.90
12893;DHT22;6514;48.606;9.222;2024-01-15T02:36:37;-2.00;99.90
12893;DHT22;6514;48.606;9.222;2024-01-15T02:39:04;-2.00;99.90
12893;DHT22;6514;48.606;9.222;2024-01-15T02:41:32;-2.00;99.90
12893;DHT22;6514;48.606;9.222;2024-01-15T02:43:59;-1.90;99.90
12893;DHT22;6514;48.606;9.222;2024-01-15T02:46:26;-1.90;99.90
12893;DHT22;6514;48.606;9.222;2024-01-15T02:48:53;-1.80;99.90
12893;DHT22;6514;48.606;9.222;2024-01-15T02:51:19;-1.80;99.90
12893;DHT22;6514;48.606;9.222;2024-01-15T02:53:48;-1.80;99.90
12893;DHT22;6514;48.606;9.222;2024-01-15T02:56:14;-1.70;99.90
12893;DHT22;6514;48.606;9.222;2024-01-15T02:58:43;-1.70;99.90
12893;DHT22;6514;48.606;9.222;2024-01-15T03:01:09;-1.70;99.90
12893;DHT22;6514;48.606;9.222;2024-01-15T03:03:36;-1.70;99.90
12893;DHT22;6514;48.606;9.222;2024-01-15T03:06:04;-1.70;99.90
12893;DHT22;6514;48.606;9.222;2024-01-15T03:08:30;-1.70;99.90
12893;DHT22;6514;48.606;9.222;2024-01-15T03:10:57;-1.60;99.90
12893;DHT22;6514;48.606;9.222;2024-01-15T03:13:24;-1.70;99.90
12893;DHT22;6514;48.606;9.222;2024-01-15T03:15:52;-1.70;99.90
12893;DHT22;6514;48.606;9.222;2024-01-15T03:18:19;-1.60;99.90
12893;DHT22;6514;48.606;9.222;2024-01-15T03:20:46;-1.60;99.90
12893;DHT22;6514;48.606;9.222;2024-01-15T03:23:13;-1.60;99.90
12893;DHT22;6514;48.606;9.222;2024-01-15T03:25:39;-1.60;99.90
12893;DHT22;6514;48.606;9.222;2024-01-15T03:28:06;-1.50;99.90
12893;DHT22;6514;48.606;9.222;2024-01-15T03:30:33;-1.60;99.90
12893;DHT22;6514;48.606;9.222;2024-01-15T03:33:01;-1.60;99.90
12893;DHT22;6514;48.606;9.222;2024-01-15T03:35:28;-1.60;99.90
12893;DHT22;6514;48.606;9.222;2024-01-15T03:37:56;-1.60;99.90
12893;DHT22;6514;48.606;9.222;2024-01-15T03:40:23;-1.60;99.90
12893;DHT22;6514;48.606;9.222;2024-01-15T03:42:50;-1.60;99.90
12893;DHT22;6514;48.606;9.222;2024-01-15T03:45:18;-1.60;99.90
12893;DHT22;6514;48.606;9.222;2024-01-15T03:47:44;-1.60;99.90
12893;DHT22;6514;48.606;9.222;2024-01-15T03:50:12;-1.60;99.90
12893;DHT22;6514;48.606;9.222;2024-01-15T03:52:39;-1.60;99.90
12893;DHT22;6514;48.606;9.222;2024-01-15T03:55:07;-1.50;99.90
12893;DHT22;6514;48.606;9.222;2024-01-15T03:57:34;-1.50;99.90
12893;DHT22;6514;48.606;9.222;2024-01-15T04:00:00;-1.50;99.90
12893;DHT22;6514;48.606;9.222;2024-01-15T04:02:27;-1.50;99.90
12893;DHT22;6514;48.606;9.222;2024-01-15T04:04:54;-1.50;99.90
12893;DHT22;6514;48.606;9.222;2024-01-15T04:07:22;-1.40;99.90
12893;DHT22;6514;48.606;9.222;2024-01-15T04:09:49;-1.40;99.90
12893;DHT22;6514;48.606;9.222;2024-01-15T04:12:16;-1.30;99.90
12893;DHT22;6514;48.606;9.222;2024-01-15T04:14:43;-1.40;99.90
12893;DHT22;6514;48.606;9.222;2024-01-15T04:17:10;-1.30;99.90
12893;DHT22;6514;48.606;9.222;2024-01-15T04:19:36;-1.30;99.90
12893;DHT22;6514;48.606;9.222;2024-01-15T04:22:03;-1.20;99.90
12893;DHT22;6514;48.606;9.222;2024-01-15T04:24:32;-1.20;99.90
12893;DHT22;6514;48.606;9.222;2024-01-15T04:26:59;-1.10;99.90
12893;DHT22;6514;48.606;9.222;2024-01-15T04:29:26;-1.10;99.90
12893;DHT22;6514;48.606;9.222;2024-01-15T04:31:53;-1.10;99.90
12893;DHT22;6514;48.606;9.222;2024-01-15T04:34:20;-1.10;99.90
12893;DHT22;6514;48.606;9.222;2024-01-15T04:36:46;-1.00;99.90
12893;DHT22;6514;48.606;9.222;2024-01-15T04:39:13;-1.00;99.90
12893;DHT22;6514;48.606;9.222;2024-01-15T04:41:41;-1.00;99.90
12893;DHT22;6514;48.606;9.222;2024-01-15T04:44:08;-1.00;99.90
12893;DHT22;6514;48.606;9.222;2024-01-15T04:46:35;-1.00;99.90
12893;DHT22;6514;48.606;9.222;2024-01-15T04:49:02;-1.00;99.90
12893;DHT22;6514;48.606;9.222;2024-01-15T04:51:29;-1.00;99.90
12893;DHT22;6514;48.606;9.222;2024-01-15T04:53:55;-0.90;99.90
12893;DHT22;6514;48.606;9.222;2024-01-15T04:56:22;-0.90;99.90
12893;DHT22;6514;48.606;9.222;2024-01-15T04:58:50;-0.90;99.90
12893;DHT22;6514;48.606;9.222;2024-01-15T05:01:17;-0.90;99.90
12893;DHT22;6514;48.606;9.222;2024-01-15T05:03:44;-0.90;99.90
12893;DHT22;6514;48.606;9.222;2024-01-15T05:06:11;-0.90;99.90
12893;DHT22;6514;48.606;9.222;2024-01-15T05:08:37;-0.90;99.90
12893;DHT22;6514;48.606;9.222;2024-01-15T05:11:04;-0.90;99.90
12893;DHT22;6514;48.606;9.222;2024-01-15T05:13:31;-0.90;99.90
12893;DHT22;6514;48.606;9.222;2024-01-15T05:15:59;-0.90;99.90
12893;DHT22;6514;48.606;9.222;2024-01-15T05:18:26;-0.90;99.90
12893;DHT22;6514;48.606;9.222;2024-01-15T05:20:53;-0.90;99.90
12893;DHT22;6514;48.606;9.222;2024-01-15T05:23:20;-0.90;99.90
12893;DHT22;6514;48.606;9.222;2024-01-15T05:25:46;-0.90;99.90
12893;DHT22;6514;48.606;9.222;2024-01-15T05:28:14;-0.90;99.90
12893;DHT22;6514;48.606;9.222;2024-01-15T05:30:41;-0.90;99.90
12893;DHT22;6514;48.606;9.222;2024-01-15T05:33:09;-0.90;99.90
12893;DHT22;6514;48.606;9.222;2024-01-15T05:35:36;-0.90;99.90
12893;DHT22;6514;48.606;9.222;2024-01-15T05:38:03;-0.90;99.90
12893;DHT22;6514;48.606;9.222;2024-01-15T05:40:29;-0.90;99.90
12893;DHT22;6514;48.606;9.222;2024-01-15T05:42:56;-0.90;99.90
12893;DHT22;6514;48.606;9.222;2024-01-15T05:45:23;-0.90;99.90
12893;DHT22;6514;48.606;9.222;2024-01-15T05:47:50;-2.20;99.90
12893;DHT22;6514;48.606;9.222;2024-01-15T05:50:18;-0.90;99.90
12893;DHT22;6514;48.606;9.222;2024-01-15T05:52:45;-0.90;99.90
12893;DHT22;6514;48.606;9.222;2024-01-15T05:55:11;-0.90;99.90
12893;DHT22;6514;48.606;9.222;2024-01-15T05:57:38;-0.80;99.90
12893;DHT22;6514;48.606;9.222;2024-01-15T06:00:06;-0.80;99.90
12893;DHT22;6514;48.606;9.222;2024-01-15T06:02:34;-0.90;99.90
12893;DHT22;6514;48.606;9.222;2024-01-15T06:05:01;-0.80;99.90
12893;DHT22;6514;48.606;9.222;2024-01-15T06:07:29;-0.90;99.90
12893;DHT22;6514;48.606;9.222;2024-01-15T06:09:56;-0.80;99.90
12893;DHT22;6514;48.606;9.222;2024-01-15T06:12:23;-0.80;99.90
12893;DHT22;6514;48.606;9.222;2024-01-15T06:14:50;-0.80;99.90
12893;DHT22;6514;48.606;9.222;2024-01-15T06:17:17;-0.80;99.90
12893;DHT22;6514;48.606;9.222;2024-01-15T06:19:44;-0.80;99.90
12893;DHT22;6514;48.606;9.222;2024-01-15T06:22:11;-0.70;99.90
12893;DHT22;6514;48.606;9.222;2024-01-15T06:24:39;-0.80;99.90
12893;DHT22;6514;48.606;9.222;2024-01-15T06:27:06;-0.80;99.90
12893;DHT22;6514;48.606;9.222;2024-01-15T06:29:33;-0.80;99.90
12893;DHT22;6514;48.606;9.222;2024-01-15T06:32:00;-0.80;99.90
12893;DHT22;6514;48.606;9.222;2024-01-15T06:34:26;-0.80;99.90
12893;DHT22;6514;48.606;9.222;2024-01-15T06:36:53;-0.80;99.90
12893;DHT22;6514;48.606;9.222;2024-01-15T06:39:20;-0.70;99.90
12893;DHT22;6514;48.606;9.222;2024-01-15T06:41:48;-0.80;99.90
12893;DHT22;6514;48.606;9.222;2024-01-15T06:44:15;-0.80;99.90
12893;DHT22;6514;48.606;9.222;2024-01-15T06:46:42;-0.70;99.90
12893;DHT22;6514;48.606;9.222;2024-01-15T06:49:09;-0.70;99.90
12893;DHT22;6514;48.606;9.222;2024-01-15T06:51:36;-0.70;99.90
12893;DHT22;6514;48.606;9.222;2024-01-15T06:54:03;-0.80;99.90
12893;DHT22;6514;48.606;9.222;2024-01-15T06:56:30;-0.80;99.90
12893;DHT22;6514;48.606;9.222;2024-01-15T06:58:58;-0.70;99.90
12893;DHT22;6514;48.606;9.222;2024-01-15T07:01:25;-0.70;99.90
12893;DHT22;6514;48.606;9.222;2024-01-15T07:03:52;-0.70;99.90
12893;DHT22;6514;48.606;9.222;2024-01-15T07:06:19;-0.70;99.90
12893;DHT22;6514;48.606;9.222;2024-01-15T07:08:46;-0.70;99.90
12893;DHT22;6514;48.606;9.222;2024-01-15T07:11:13;-0.70;99.90
12893;DHT22;6514;48.606;9.222;2024-01-15T07:13:39;-0.60;99.90
12893;DHT22;6514;48.606;9.222;2024-01-15T07:16:08;-0.70;99.90
12893;DHT22;6514;48.606;9.222;2024-01-15T07:18:34;-0.60;99.90
12893;DHT22;6514;48.606;9.222;2024-01-15T07:21:02;-0.70;99.90
12893;DHT22;6514;48.606;9.222;2024-01-15T07:23:31;-0.70;99.90
12893;DHT22;6514;48.606;9.222;2024-01-15T07:25:57;-0.70;99.90
12893;DHT22;6514;48.606;9.222;2024-01-15T07:28:24;-0.70;99.90
12893;DHT22;6514;48.606;9.222;2024-01-15T07:30:51;-0.60;99.90
12893;DHT22;6514;48.606;9.222;2024-01-15T07:33:19;-0.60;99.90
12893;DHT22;6514;48.606;9.222;2024-01-15T07:35:46;-0.60;99.90
12893;DHT22;6514;48.606;9.222;2024-01-15T07:38:13;-0.60;99.90
12893;DHT22;6514;48.606;9.222;2024-01-15T07:40:40;-0.60;99.90
12893;DHT22;6514;48.606;9.222;2024-01-15T07:43:07;-0.60;99.90
12893;DHT22;6514;48.606;9.222;2024-01-15T07:45:33;-0.50;99.90
12893;DHT22;6514;48.606;9.222;2024-01-15T07:48:00;-0.50;99.90
12893;DHT22;6514;48.606;9.222;2024-01-15T07:50:29;-0.50;99.90
12893;DHT22;6514;48.606;9.222;2024-01-15T07:52:57;-0.50;99.90
12893;DHT22;6514;48.606;9.222;2024-01-15T07:55:23;-0.50;99.90
12893;DHT22;6514;48.606;9.222;2024-01-15T07:57:50;-0.40;99.90
12893;DHT22;6514;48.606;9.222;2024-01-15T08:00:18;-0.40;99.90
12893;DHT22;6514;48.606;9.222;2024-01-15T08:02:45;-0.40;99.90
12893;DHT22;6514;48.606;9.222;2024-01-15T08:05:12;-0.30;99.90
12893;DHT22;6514;48.606;9.222;2024-01-15T08:07:40;-0.30;99.90
12893;DHT22;6514;48.606;9.222;2024-01-15T08:10:07;-0.30;99.90
12893;DHT22;6514;48.606;9.222;2024-01-15T08:12:34;-0.20;99.90
12893;DHT22;6514;48.606;9.222;2024-01-15T08:15:01;-0.20;99.90
12893;DHT22;6514;48.606;9.222;2024-01-15T08:17:27;-0.20;99.90
12893;DHT22;6514;48.606;9.222;2024-01-15T08:19:55;-0.20;99.90
12893;DHT22;6514;48.606;9.222;2024-01-15T08:22:22;-0.10;99.90
12893;DHT22;6514;48.606;9.222;2024-01-15T08:24:50;-0.10;99.90
12893;DHT22;6514;48.606;9.222;2024-01-15T08:27:17;0.00;99.90
12893;DHT22;6514;48.606;9.222;2024-01-15T08:29:45;0.00;99.90
12893;DHT22;6514;48.606;9.222;2024-01-15T08:32:12;0.00;99.90
12893;DHT22;6514;48.606;9.222;2024-01-15T08:34:41;0.00;99.90
12893;DHT22;6514;48.606;9.222;2024-01-15T08:37:08;0.00;99.90
12893;DHT22;6514;48.606;9.222;2024-01-15T08:39:34;0.10;99.90
12893;DHT22;6514;48.606;9.222;2024-01-15T08:42:05;0.10;99.90
12893;DHT22;6514;48.606;9.222;2024-01-15T08:44:32;0.10;99.90
12893;DHT22;6514;48.606;9.222;2024-01-15T08:46:59;0.20;99.90
12893;DHT22;6514;48.606;9.222;2024-01-15T08:49:26;0.20;99.90
12893;DHT22;6514;48.606;9.222;2024-01-15T08:51:52;0.30;99.90
12893;DHT22;6514;48.606;9.222;2024-01-15T08:54:19;0.30;99.90
12893;DHT22;6514;48.606;9.222;2024-01-15T08:56:46;0.40;99.90
12893;DHT22;6514;48.606;9.222;2024-01-15T08:59:14;0.50;99.90
12893;DHT22;6514;48.606;9.222;2024-01-15T09:01:41;0.50;99.90
12893;DHT22;6514;48.606;9.222;2024-01-15T09:04:08;0.60;99.90
12893;DHT22;6514;48.606;9.222;2024-01-15T09:06:35;0.60;99.90
12893;DHT22;6514;48.606;9.222;2024-01-15T09:09:02;0.70;99.90
12893;DHT22;6514;48.606;9.222;2024-01-15T09:11:30;0.80;99.90
12893;DHT22;6514;48.606;9.222;2024-01-15T09:13:57;0.80;99.90
12893;DHT22;6514;48.606;9.222;2024-01-15T09:16:25;0.90;99.90
12893;DHT22;6514;48.606;9.222;2024-01-15T09:18:52;0.90;99.90
12893;DHT22;6514;48.606;9.222;2024-01-15T09:21:19;0.90;99.90
12893;DHT22;6514;48.606;9.222;2024-01-15T09:23:46;1.00;99.90
12893;DHT22;6514;48.606;9.222;2024-01-15T09:26:13;0.90;99.90
12893;DHT22;6514;48.606;9.222;2024-01-15T09:28:39;1.00;99.90
12893;DHT22;6514;48.606;9.222;2024-01-15T09:31:06;1.00;99.90
12893;DHT22;6514;48.606;9.222;2024-01-15T09:33:34;1.10;99.90
12893;DHT22;6514;48.606;9.222;2024-01-15T09:36:02;1.10;99.90
12893;DHT22;6514;48.606;9.222;2024-01-15T09:38:29;1.20;99.90
12893;DHT22;6514;48.606;9.222;2024-01-15T09:40:57;1.20;99.90
12893;DHT22;6514;48.606;9.222;2024-01-15T09:43:24;1.30;99.90
12893;DHT22;6514;48.606;9.222;2024-01-15T09:45:51;1.30;99.90
12893;DHT22;6514;48.606;9.222;2024-01-15T09:48:19;1.40;99.90
12893;DHT22;6514;48.606;9.222;2024-01-15T09:50:47;1.40;99.90
12893;DHT22;6514;48.606;9.222;2024-01-15T09:53:15;1.50;99.90
12893;DHT22;6514;48.606;9.222;2024-01-15T09:55:42;1.50;99.90
12893;DHT22;6514;48.606;9.222;2024-01-15T09:58:08;1.50;99.90
12893;DHT22;6514;48.606;9.222;2024-01-15T10:00:37;1.60;99.90
12893;DHT22;6514;48.606;9.222;2024-01-15T10:03:07;1.60;99.90
12893;DHT22;6514;48.606;9.222;2024-01-15T10:05:36;1.60;99.90
12893;DHT22;6514;48.606;9.222;2024-01-15T10:08:04;1.60;99.90
12893;DHT22;6514;48.606;9.222;2024-01-15T10:10:31;1.70;99.90
12893;DHT22;6514;48.606;9.222;2024-01-15T10:12:58;1.70;99.90
12893;DHT22;6514;48.606;9.222;2024-01-15T10:15:26;1.80;99.90
12893;DHT22;6514;48.606;9.222;2024-01-15T10:17:53;1.80;99.90
12893;DHT22;6514;48.606;9.222;2024-01-15T10:20:20;1.70;99.90
12893;DHT22;6514;48.606;9.222;2024-01-15T10:22:48;1.70;99.90
12893;DHT22;6514;48.606;9.222;2024-01-15T10:25:18;1.70;99.90
12893;DHT22;6514;48.606;9.222;2024-01-15T10:27:59;1.70;99.90
12893;DHT22;6514;48.606;9.222;2024-01-15T10:30:26;1.70;99.90
12893;DHT22;6514;48.606;9.222;2024-01-15T10:32:57;1.80;99.90
12893;DHT22;6514;48.606;9.222;2024-01-15T10:35:27;1.80;99.90
12893;DHT22;6514;48.606;9.222;2024-01-15T10:37:54;1.80;99.90
12893;DHT22;6514;48.606;9.222;2024-01-15T10:40:22;1.70;99.90
12893;DHT22;6514;48.606;9.222;2024-01-15T10:42:49;1.70;99.90
12893;DHT22;6514;48.606;9.222;2024-01-15T10:45:16;1.70;99.90
12893;DHT22;6514;48.606;9.222;2024-01-15T10:47:43;1.70;99.90
12893;DHT22;6514;48.606;9.222;2024-01-15T10:50:10;1.70;99.90
12893;DHT22;6514;48.606;9.222;2024-01-15T10:52:38;1.70;99.90
12893;DHT22;6514;48.606;9.222;2024-01-15T10:55:07;1.80;99.90
12893;DHT22;6514;48.606;9.222;2024-01-15T10:57:36;1.80;99.90
12893;DHT22;6514;48.606;9.222;2024-01-15T11:00:04;1.90;99.90
12893;DHT22;6514;48.606;9.222;2024-01-15T11:02:32;1.90;99.90
12893;DHT22;6514;48.606;9.222;2024-01-15T11:04:59;2.00;99.90
12893;DHT22;6514;48.606;9.222;2024-01-15T11:07:26;2.10;99.90
12893;DHT22;6514;48.606;9.222;2024-01-15T11:09:53;2.10;99.90
12893;DHT22;6514;48.606;9.222;2024-01-15T11:12:20;2.10;99.90
12893;DHT22;6514;48.606;9.222;2024-01-15T11:14:49;2.10;99.90
12893;DHT22;6514;48.606;9.222;2024-01-15T11:17:17;2.00;99.90
12893;DHT22;6514;48.606;9.222;2024-01-15T11:19:46;2.00;99.90
12893;DHT22;6514;48.606;9.222;2024-01-15T11:25:13;1.80;99.90
12893;DHT22;6514;48.606;9.222;2024-01-15T11:27:41;1.80;99.90
12893;DHT22;6514;48.606;9.222;2024-01-15T11:30:10;1.70;99.90
12893;DHT22;6514;48.606;9.222;2024-01-15T11:32:38;1.70;99.90
12893;DHT22;6514;48.606;9.222;2024-01-15T11:35:07;1.70;99.90
12893;DHT22;6514;48.606;9.222;2024-01-15T11:37:58;1.70;99.90
12893;DHT22;6514;48.606;9.222;2024-01-15T11:40:39;1.70;99.90
12893;DHT22;6514;48.606;9.222;2024-01-15T11:43:08;1.70;99.90
12893;DHT22;6514;48.606;9.222;2024-01-15T11:45:37;1.60;99.90
12893;DHT22;6514;48.606;9.222;2024-01-15T11:48:10;1.60;99.90
12893;DHT22;6514;48.606;9.222;2024-01-15T11:50:40;1.60;99.90
12893;DHT22;6514;48.606;9.222;2024-01-15T11:53:15;1.60;99.90
12893;DHT22;6514;48.606;9.222;2024-01-15T11:55:44;1.60;99.90
12893;DHT22;6514;48.606;9.222;2024-01-15T11:58:11;1.60;99.90
12893;DHT22;6514;48.606;9.222;2024-01-15T12:00:47;1.60;99.90
12893;DHT22;6514;48.606;9.222;2024-01-15T12:03:15;1.60;99.90
12893;DHT22;6514;48.606;9.222;2024-01-15T12:05:43;2.70;99.90
12893;DHT22;6514;48.606;9.222;2024-01-15T12:08:10;1.60;99.90
12893;DHT22;6514;48.606;9.222;2024-01-15T12:10:38;1.50;99.90
12893;DHT22;6514;48.606;9.222;2024-01-15T12:13:10;1.50;99.90
12893;DHT22;6514;48.606;9.222;2024-01-15T12:15:37;1.50;99.90
12893;DHT22;6514;48.606;9.222;2024-01-15T12:18:08;1.50;99.90
12893;DHT22;6514;48.606;9.222;2024-01-15T12:20:36;1.50;99.90
12893;DHT22;6514;48.606;9.222;2024-01-15T12:23:03;1.50;99.90
12893;DHT22;6514;48.606;9.222;2024-01-15T12:25:31;1.50;99.90
12893;DHT22;6514;48.606;9.222;2024-01-15T12:27:59;1.50;99.90
12893;DHT22;6514;48.606;9.222;2024-01-15T12:30:26;1.40;99.90
12893;DHT22;6514;48.606;9.222;2024-01-15T12:32:53;1.30;99.90
12893;DHT22;6514;48.606;9.222;2024-01-15T12:35:23;1.30;99.90
12893;DHT22;6514;48.606;9.222;2024-01-15T12:37:51;1.30;99.90
12893;DHT22;6514;48.606;9.222;2024-01-15T12:40:19;1.30;99.90
12893;DHT22;6514;48.606;9.222;2024-01-15T12:42:46;1.30;99.90
12893;DHT22;6514;48.606;9.222;2024-01-15T12:45:14;1.30;99.90
12893;DHT22;6514;48.606;9.222;2024-01-15T12:47:41;1.20;99.90
12893;DHT22;6514;48.606;9.222;2024-01-15T12:50:09;1.20;99.90
12893;DHT22;6514;48.606;9.222;2024-01-15T12:52:40;1.20;99.90
12893;DHT22;6514;48.606;9.222;2024-01-15T12:55:08;1.20;99.90
12893;DHT22;6514;48.606;9.222;2024-01-15T12:57:36;1.20;99.90
12893;DHT22;6514;48.606;9.222;2024-01-15T13:00:04;1.10;99.90
12893;DHT22;6514;48.606;9.222;2024-01-15T13:02:32;1.00;99.90
12893;DHT22;6514;48.606;9.222;2024-01-15T13:04:59;1.00;99.90
12893;DHT22;6514;48.606;9.222;2024-01-15T13:07:26;1.00;99.90
12893;DHT22;6514;48.606;9.222;2024-01-15T13:09:54;1.00;99.90
12893;DHT22;6514;48.606;9.222;2024-01-15T13:12:22;0.90;99.90
12893;DHT22;6514;48.606;9.222;2024-01-15T13:14:49;0.90;99.90
12893;DHT22;6514;48.606;9.222;2024-01-15T13:17:15;0.90;99.90
12893;DHT22;6514;48.606;9.222;2024-01-15T13:19:42;0.90;99.90
12893;DHT22;6514;48.606;9.222;2024-01-15T13:22:09;0.90;99.90
12893;DHT22;6514;48.606;9.222;2024-01-15T13:24:39;0.90;99.90
12893;DHT22;6514;48.606;9.222;2024-01-15T13:27:07;0.80;99.90
12893;DHT22;6514;48.606;9.222;2024-01-15T13:29:34;0.90;99.90
12893;DHT22;6514;48.606;9.222;2024-01-15T13:32:01;0.80;99.90
12893;DHT22;6514;48.606;9.222;2024-01-15T13:34:28;0.80;99.90
12893;DHT22;6514;48.606;9.222;2024-01-15T13:36:55;0.80;99.90
12893;DHT22;6514;48.606;9.222;2024-01-15T13:39:22;0.80;99.90
12893;DHT22;6514;48.606;9.222;2024-01-15T13:41:49;0.80;99.90
12893;DHT22;6514;48.606;9.222;2024-01-15T13:44:18;0.80;99.90
12893;DHT22;6514;48.606;9.222;2024-01-15T13:46:45;0.80;99.90
12893;DHT22;6514;48.606;9.222;2024-01-15T13:49:12;0.70;99.90
12893;DHT22;6514;48.606;9.222;2024-01-15T13:51:45;0.80;99.90
12893;DHT22;6514;48.606;9.222;2024-01-15T13:54:21;0.70;99.90
12893;DHT22;6514;48.606;9.222;2024-01-15T13:56:48;0.70;99.90
12893;DHT22;6514;48.606;9.222;2024-01-15T13:59:16;0.80;99.90
12893;DHT22;6514;48.606;9.222;2024-01-15T14:01:43;0.80;99.90
12893;DHT22;6514;48.606;9.222;2024-01-15T14:04:12;0.70;99.90
12893;DHT22;6514;48.606;9.222;2024-01-15T14:06:38;0.80;99.90
12893;DHT22;6514;48.606;9.222;2024-01-15T14:09:05;0.80;99.90
12893;DHT22;6514;48.606;9.222;2024-01-15T14:11:35;0.80;99.90
12893;DHT22;6514;48.606;9.222;2024-01-15T14:14:02;0.80;99.90
12893;DHT22;6514;48.606;9.222;2024-01-15T14:16:30;0.80;99.90
12893;DHT22;6514;48.606;9.222;2024-01-15T14:18:57;0.80;99.90
12893;DHT22;6514;48.606;9.222;2024-01-15T14:21:24;0.80;99.90
12893;DHT22;6514;48.606;9.222;2024-01-15T14:23:51;0.70;99.90
12893;DHT22;6514;48.606;9.222;2024-01-15T14:26:17;0.70;99.90
12893;DHT22;6514;48.606;9.222;2024-01-15T14:28:44;0.70;99.90
12893;DHT22;6514;48.606;9.222;2024-01-15T14:31:11;0.80;99.90
12893;DHT22;6514;48.606;9.222;2024-01-15T14:33:40;0.70;99.90
12893;DHT22;6514;48.606;9.222;2024-01-15T14:36:07;0.60;99.90
12893;DHT22;6514;48.606;9.222;2024-01-15T14:38:34;0.70;99.90
12893;DHT22;6514;48.606;9.222;2024-01-15T14:41:01;0.70;99.90
12893;DHT22;6514;48.606;9.222;2024-01-15T14:43:28;0.60;99.90
12893;DHT22;6514;48.606;9.222;2024-01-15T14:45:54;0.60;99.90
12893;DHT22;6514;48.606;9.222;2024-01-15T14:48:22;0.60;99.90
12893;DHT22;6514;48.606;9.222;2024-01-15T14:50:50;0.60;99.90
12893;DHT22;6514;48.606;9.222;2024-01-15T14:53:17;0.60;99.90
12893;DHT22;6514;48.606;9.222;2024-01-15T14:55:44;0.60;99.90
12893;DHT22;6514;48.606;9.222;2024-01-15T14:58:10;0.50;99.90
12893;DHT22;6514;48.606;9.222;2024-01-15T15:00:36;0.50;99.90
12893;DHT22;6514;48.606;9.222;2024-01-15T15:03:03;0.50;99.90
12893;DHT22;6514;48.606;9.222;2024-01-15T15:05:30;0.50;99.90
12893;DHT22;6514;48.606;9.222;2024-01-15T15:07:59;0.40;99.90
12893;DHT22;6514;48.606;9.222;2024-01-15T15:10:26;0.40;99.90
12893;DHT22;6514;48.606;9.222;2024-01-15T15:12:52;0.40;99.90
12893;DHT22;6514;48.606;9.222;2024-01-15T15:15:19;0.40;99.90
12893;DHT22;6514;48.606;9.222;2024-01-15T15:17:46;0.40;99.90
12893;DHT22;6514;48.606;9.222;2024-01-15T15:20:13;0.50;99.90
12893;DHT22;6514;48.606;9.222;2024-01-15T15:22:40;0.50;99.90
12893;DHT22;6514;48.606;9.222;2024-01-15T15:25:09;0.50;99.90
12893;DHT22;6514;48.606;9.222;2024-01-15T15:27:37;0.50;99.90
12893;DHT22;6514;48.606;9.222;2024-01-15T15:30:06;0.50;99.90
12893;DHT22;6514;48.606;9.222;2024-01-15T15:32:33;0.50;99.90
12893;DHT22;6514;48.606;9.222;2024-01-15T15:35:00;0.40;99.90
12893;DHT22;6514;48.606;9.222;2024-01-15T15:37:27;0.30;99.90
12893;DHT22;6514;48.606;9.222;2024-01-15T15:39:55;0.30;99.90
12893;DHT22;6514;48.606;9.222;2024-01-15T15:42:25;0.20;99.90
12893;DHT22;6514;48.606;9.222;2024-01-15T15:44:52;0.20;99.90
12893;DHT22;6514;48.606;9.222;2024-01-15T15:47:20;0.10;99.90
12893;DHT22;6514;48.606;9.222;2024-01-15T15:49:47;0.10;99.90
12893;DHT22;6514;48.606;9.222;2024-01-15T15:52:14;0.10;99.90
12893;DHT22;6514;48.606;9.222;2024-01-15T15:54:40;0.00;99.90
12893;DHT22;6514;48.606;9.222;2024-01-15T15:57:08;0.00;99.90
12893;DHT22;6514;48.606;9.222;2024-01-15T15:59:36;-0.10;99.90
12893;DHT22;6514;48.606;9.222;2024-01-15T16:02:03;-0.10;99.90
12893;DHT22;6514;48.606;9.222;2024-01-15T16:04:30;-0.10;99.90
12893;DHT22;6514;48.606;9.222;2024-01-15T16:06:57;-0.10;99.90
12893;DHT22;6514;48.606;9.222;2024-01-15T16:09:23;-0.20;99.90
12893;DHT22;6514;48.606;9.222;2024-01-15T16:11:50;-0.20;99.90
12893;DHT22;6514;48.606;9.222;2024-01-15T16:14:17;-0.20;99.90
12893;DHT22;6514;48.606;9.222;2024-01-15T16:16:45;-0.20;99.90
12893;DHT22;6514;48.606;9.222;2024-01-15T16:19:12;-0.30;99.90
12893;DHT22;6514;48.606;9.222;2024-01-15T16:21:39;-0.30;99.90